createdAt,value
2022-09-24T00:01:56.179Z,16.95
2022-09-24T00:04:26.095Z,10.95
2022-09-24T00:06:53.877Z,10.73
2022-09-24T00:09:23.003Z,10.13
2022-09-24T00:11:52.470Z,10.23
2022-09-24T00:14:19.951Z,10.10
2022-09-24T00:16:47.547Z,17.63
2022-09-24T00:19:16.093Z,14.65
2022-09-24T00:21:43.951Z,12.95
2022-09-24T00:24:36.118Z,10.50
2022-09-24T00:27:05.979Z,9.57
2022-09-24T00:29:35.426Z,9.50
2022-09-24T00:32:04.387Z,9.98
2022-09-24T00:34:31.946Z,10.00
2022-09-24T00:36:59.613Z,10.35
2022-09-24T00:39:27.076Z,10.20
2022-09-24T00:41:55.344Z,10.43
2022-09-24T00:44:41.846Z,10.55
2022-09-24T00:47:37.727Z,9.88
2022-09-24T00:50:08.637Z,9.98
2022-09-24T00:52:42.261Z,10.60
2022-09-24T00:55:10.187Z,9.93
2022-09-24T00:57:39.707Z,11.45
2022-09-24T01:00:08.248Z,10.82
2022-09-24T01:02:39.218Z,10.35
2022-09-24T01:05:07.134Z,10.70
2022-09-24T01:07:35.430Z,10.60
2022-09-24T01:10:03.627Z,12.05
2022-09-24T01:12:40.367Z,10.68
2022-09-24T01:20:21.210Z,10.68
2022-09-24T01:22:57.777Z,11.63
2022-09-24T01:25:39.962Z,10.57
2022-09-24T01:28:20.146Z,10.63
2022-09-24T01:30:51.190Z,10.27
2022-09-24T01:33:22.790Z,10.90
2022-09-24T01:35:55.410Z,10.75
2022-09-24T01:38:28.859Z,10.73
2022-09-24T01:41:00.381Z,10.02
2022-09-24T01:43:30.457Z,11.13
2022-09-24T01:46:01.257Z,11.18
2022-09-24T01:48:30.441Z,10.60
2022-09-24T01:51:08.003Z,10.52
2022-09-24T01:53:47.621Z,10.60
2022-09-24T01:56:44.775Z,9.38
2022-09-24T01:59:20.775Z,9.73
2022-09-24T02:01:57.524Z,8.73
2022-09-24T02:04:28.050Z,9.52
2022-09-24T02:07:02.268Z,9.90
2022-09-24T02:09:38.324Z,8.48
2022-09-24T02:12:14.620Z,8.55
2022-09-24T02:14:50.751Z,9.15
2022-09-24T02:17:18.530Z,8.88
2022-09-24T02:19:48.026Z,8.82
2022-09-24T02:22:17.522Z,8.85
2022-09-24T02:24:55.635Z,8.60
2022-09-24T02:27:28.619Z,9.38
2022-09-24T02:29:57.316Z,8.50
2022-09-24T02:32:28.485Z,9.15
2022-09-24T02:35:03.001Z,9.63
2022-09-24T02:37:35.938Z,8.52
2022-09-24T02:40:05.910Z,8.90
2022-09-24T02:42:34.407Z,8.98
2022-09-24T02:45:02.439Z,9.00
2022-09-24T02:47:29.717Z,9.55
2022-09-24T02:49:57.749Z,7.90
2022-09-24T02:52:25.081Z,8.35
2022-09-24T02:54:52.395Z,9.20
2022-09-24T02:57:20.281Z,9.05
2022-09-24T02:59:49.150Z,9.27
2022-09-24T03:02:16.437Z,9.20
2022-09-24T03:04:43.971Z,9.65
2022-09-24T03:07:14.539Z,9.75
2022-09-24T03:09:41.807Z,11.68
2022-09-24T03:12:09.805Z,11.48
2022-09-24T03:14:37.048Z,12.70
2022-09-24T03:17:04.481Z,12.40
2022-09-24T03:19:31.960Z,11.38
2022-09-24T03:21:59.251Z,11.80
2022-09-24T03:24:26.434Z,11.27
2022-09-24T03:26:53.920Z,10.05
2022-09-24T03:29:41.624Z,10.35
2022-09-24T03:32:09.187Z,9.65
2022-09-24T03:34:36.395Z,10.00
2022-09-24T03:37:03.603Z,10.38
2022-09-24T03:39:31.019Z,9.82
2022-09-24T03:41:58.281Z,9.85
2022-09-24T03:44:25.934Z,9.85
2022-09-24T03:46:53.420Z,9.68
2022-09-24T03:49:20.617Z,11.35
2022-09-24T03:51:48.067Z,11.85
2022-09-24T03:54:16.661Z,10.90
2022-09-24T03:56:43.931Z,11.75
2022-09-24T03:59:11.464Z,11.63
2022-09-24T04:01:39.095Z,10.55
2022-09-24T04:04:06.332Z,10.82
2022-09-24T04:06:33.767Z,10.30
2022-09-24T04:09:01.202Z,9.73
2022-09-24T04:11:28.439Z,10.88
2022-09-24T04:13:56.468Z,9.55
2022-09-24T04:16:24.024Z,11.18
2022-09-24T04:18:51.540Z,10.35
2022-09-24T04:21:18.954Z,9.90
2022-09-24T04:23:46.592Z,9.65
2022-09-24T04:26:14.052Z,10.13
2022-09-24T04:28:42.232Z,10.13
2022-09-24T04:31:09.886Z,9.93
2022-09-24T04:33:37.394Z,10.60
2022-09-24T04:36:04.583Z,10.52
2022-09-24T04:38:32.154Z,11.35
2022-09-24T04:41:09.345Z,11.65
2022-09-24T04:43:37.204Z,20.77
2022-09-24T04:46:05.219Z,43.10
2022-09-24T04:48:32.727Z,41.53
2022-09-24T04:51:02.233Z,36.85
2022-09-24T04:53:29.673Z,34.47
2022-09-24T04:55:56.952Z,35.22
2022-09-24T04:58:24.614Z,40.00
2022-09-24T05:00:54.658Z,40.75
2022-09-24T05:03:22.084Z,35.85
2022-09-24T05:05:52.679Z,34.80
2022-09-24T05:08:20.161Z,26.80
2022-09-24T05:10:47.489Z,24.20
2022-09-24T05:13:15.014Z,24.13
2022-09-24T05:15:43.280Z,21.13
2022-09-24T05:18:10.855Z,18.75
2022-09-24T05:20:38.484Z,16.20
2022-09-24T05:23:06.114Z,15.02
2022-09-24T05:25:54.438Z,13.60
2022-09-24T05:28:21.974Z,10.75
2022-09-24T05:30:49.700Z,11.07
2022-09-24T05:33:16.996Z,9.18
2022-09-24T05:35:44.762Z,9.10
2022-09-24T05:38:12.000Z,9.00
2022-09-24T05:40:48.670Z,7.20
2022-09-24T05:45:50.651Z,6.78
2022-09-24T05:48:18.229Z,6.85
2022-09-24T05:50:45.670Z,7.07
2022-09-24T05:53:13.066Z,7.25
2022-09-24T05:55:42.363Z,7.57
2022-09-24T05:58:10.865Z,8.68
2022-09-24T06:00:38.090Z,8.60
2022-09-24T06:03:10.893Z,8.23
2022-09-24T06:05:38.187Z,7.55
2022-09-24T06:08:06.240Z,7.82
2022-09-24T06:10:33.843Z,7.43
2022-09-24T06:13:01.124Z,7.95
2022-09-24T06:15:28.747Z,7.55
2022-09-24T06:17:56.397Z,8.68
2022-09-24T06:20:23.871Z,9.15
2022-09-24T06:22:51.124Z,8.57
2022-09-24T06:25:18.754Z,9.15
2022-09-24T06:27:52.997Z,10.40
2022-09-24T06:30:20.481Z,12.43
2022-09-24T06:32:47.820Z,14.10
2022-09-24T06:35:15.133Z,11.50
2022-09-24T06:37:42.498Z,10.60
2022-09-24T06:40:10.667Z,8.90
2022-09-24T06:42:38.499Z,8.32
2022-09-24T06:45:07.115Z,9.40
2022-09-24T06:47:34.705Z,8.68
2022-09-24T06:50:01.951Z,7.82
2022-09-24T06:52:30.966Z,8.68
2022-09-24T06:54:58.335Z,8.27
2022-09-24T06:57:28.899Z,9.10
2022-09-24T06:59:56.547Z,9.13
2022-09-24T07:02:24.041Z,8.15
2022-09-24T07:04:51.400Z,7.45
2022-09-24T07:07:32.867Z,6.70
2022-09-24T07:10:02.622Z,6.40
2022-09-24T07:12:32.136Z,5.75
2022-09-24T07:15:00.464Z,5.88
2022-09-24T07:17:33.561Z,6.13
2022-09-24T07:20:01.882Z,5.35
2022-09-24T07:22:29.279Z,5.97
2022-09-24T07:24:56.470Z,5.95
2022-09-24T07:27:24.328Z,5.80
2022-09-24T07:29:51.669Z,5.35
2022-09-24T07:32:19.180Z,5.25
2022-09-24T07:34:47.199Z,6.03
2022-09-24T07:37:14.703Z,5.05
2022-09-24T07:39:41.952Z,5.38
2022-09-24T07:42:09.362Z,4.65
2022-09-24T07:44:36.623Z,4.40
2022-09-24T07:47:04.379Z,4.65
2022-09-24T07:49:33.243Z,4.22
2022-09-24T07:52:01.416Z,4.85
2022-09-24T07:54:30.484Z,4.45
2022-09-24T07:56:58.021Z,4.10
2022-09-24T07:59:25.805Z,4.15
2022-09-24T08:01:53.063Z,3.90
2022-09-24T08:04:20.808Z,4.15
2022-09-24T08:06:48.538Z,4.60
2022-09-24T08:09:16.882Z,4.28
2022-09-24T08:11:44.835Z,3.95
2022-09-24T08:14:12.285Z,3.88
2022-09-24T08:16:40.753Z,3.95
2022-09-24T08:19:14.061Z,3.50
2022-09-24T08:21:41.459Z,3.95
2022-09-24T08:24:09.150Z,15.50
2022-09-24T08:26:36.562Z,4.05
2022-09-24T08:29:03.886Z,4.00
2022-09-24T08:31:31.443Z,5.20
2022-09-24T08:33:59.023Z,4.35
2022-09-24T08:36:28.037Z,4.15
2022-09-24T08:38:55.988Z,3.38
2022-09-24T08:41:29.241Z,3.67
2022-09-24T08:44:05.373Z,3.40
2022-09-24T08:47:12.280Z,3.05
2022-09-24T08:49:47.389Z,3.15
2022-09-24T08:52:41.713Z,3.30
2022-09-24T08:55:24.231Z,3.22
2022-09-24T08:58:17.417Z,4.15
2022-09-24T09:00:52.145Z,3.50
2022-09-24T09:03:37.728Z,3.00
2022-09-24T09:06:29.755Z,3.58
2022-09-24T09:09:12.350Z,3.30
2022-09-24T09:11:41.191Z,3.80
2022-09-24T09:14:18.668Z,3.70
2022-09-24T09:16:52.194Z,3.70
2022-09-24T09:19:24.416Z,3.42
2022-09-24T09:22:00.073Z,3.83
2022-09-24T09:24:45.076Z,4.00
2022-09-24T09:27:17.136Z,3.95
2022-09-24T09:29:48.251Z,3.60
2022-09-24T09:32:43.049Z,3.53
2022-09-24T09:35:22.342Z,3.90
2022-09-24T09:38:23.382Z,3.15
2022-09-24T09:40:54.083Z,4.05
2022-09-24T09:43:21.356Z,3.55
2022-09-24T09:46:00.145Z,4.38
2022-09-24T09:48:38.281Z,3.83
2022-09-24T09:51:06.766Z,3.47
2022-09-24T09:53:34.228Z,4.40
2022-09-24T09:56:05.249Z,3.80
2022-09-24T09:58:40.211Z,3.95
2022-09-24T10:01:17.341Z,3.65
2022-09-24T10:03:44.620Z,3.20
2022-09-24T10:06:24.165Z,3.78
2022-09-24T10:08:51.557Z,3.10
2022-09-24T10:11:19.990Z,3.47
2022-09-24T10:14:02.264Z,3.10
2022-09-24T10:16:30.091Z,2.80
2022-09-24T10:18:57.546Z,2.88
2022-09-24T10:21:35.887Z,2.75
2022-09-24T10:24:09.166Z,2.83
2022-09-24T10:26:45.044Z,3.10
2022-09-24T10:29:52.568Z,3.00
2022-09-24T10:32:23.570Z,2.97
2022-09-24T10:35:02.533Z,2.25
2022-09-24T10:37:30.347Z,2.50
2022-09-24T10:40:12.425Z,2.58
2022-09-24T10:42:39.742Z,2.70
2022-09-24T10:45:14.064Z,2.97
2022-09-24T10:48:11.003Z,2.33
2022-09-24T10:50:54.464Z,3.20
2022-09-24T10:53:46.727Z,3.03
2022-09-24T10:56:27.935Z,3.05
2022-09-24T10:59:19.047Z,2.70
2022-09-24T11:02:13.790Z,3.30
2022-09-24T11:04:44.143Z,3.10
2022-09-24T11:08:01.907Z,3.33
2022-09-24T11:11:17.367Z,3.10
2022-09-24T11:14:08.088Z,2.90
2022-09-24T11:16:50.137Z,3.08
2022-09-24T11:19:23.744Z,3.20
2022-09-24T11:22:08.813Z,3.42
2022-09-24T11:24:54.716Z,2.70
2022-09-24T11:27:52.388Z,3.10
2022-09-24T11:30:22.376Z,3.03
2022-09-24T11:33:08.087Z,2.58
2022-09-24T11:35:56.599Z,3.03
2022-09-24T11:38:33.204Z,3.38
2022-09-24T11:44:01.141Z,3.22
2022-09-24T11:46:47.311Z,2.95
2022-09-24T11:49:53.176Z,3.50
2022-09-24T11:52:29.747Z,3.17
2022-09-24T11:55:00.890Z,3.25
2022-09-24T11:57:33.668Z,2.97
2022-09-24T12:00:15.420Z,3.67
2022-09-24T12:03:07.856Z,4.78
2022-09-24T12:05:44.941Z,4.38
2022-09-24T12:08:27.867Z,4.70
2022-09-24T12:11:08.046Z,3.15
2022-09-24T12:13:45.640Z,3.72
2022-09-24T12:16:20.092Z,2.92
2022-09-24T12:19:24.422Z,3.22
2022-09-24T12:21:53.678Z,3.13
2022-09-24T12:24:30.226Z,3.85
2022-09-24T12:27:00.280Z,4.18
2022-09-24T12:30:00.403Z,3.95
2022-09-24T12:32:52.297Z,5.00
2022-09-24T12:35:36.787Z,4.32
2022-09-24T12:38:09.907Z,4.20
2022-09-24T12:41:14.038Z,4.53
2022-09-24T12:43:59.796Z,4.13
2022-09-24T12:46:50.066Z,4.25
2022-09-24T12:49:26.435Z,4.43
2022-09-24T12:51:57.492Z,4.78
2022-09-24T12:54:33.840Z,4.53
2022-09-24T12:57:26.415Z,4.60
2022-09-24T12:59:59.911Z,3.00
2022-09-24T13:02:56.965Z,3.20
2022-09-24T13:05:27.238Z,3.42
2022-09-24T13:08:25.431Z,4.47
2022-09-24T13:11:00.931Z,5.33
2022-09-24T13:13:31.835Z,3.38
2022-09-24T13:16:05.479Z,2.20
2022-09-24T13:18:36.147Z,2.28
2022-09-24T13:21:19.258Z,2.13
2022-09-24T13:23:48.762Z,2.47
2022-09-24T13:26:24.875Z,2.20
2022-09-24T13:29:04.662Z,2.92
2022-09-24T13:31:47.620Z,3.13
2022-09-24T13:34:32.022Z,2.60
2022-09-24T13:37:23.624Z,3.15
2022-09-24T13:40:03.683Z,2.72
2022-09-24T13:42:50.354Z,2.70
2022-09-24T13:45:22.559Z,2.80
2022-09-24T13:48:15.849Z,2.30
2022-09-24T13:50:51.903Z,3.30
2022-09-24T13:53:32.656Z,3.38
2022-09-24T13:56:04.679Z,2.85
2022-09-24T13:58:41.625Z,3.05
2022-09-24T14:01:17.627Z,2.88
2022-09-24T14:04:07.457Z,2.75
2022-09-24T14:06:38.932Z,3.70
2022-09-24T14:09:24.947Z,3.72
2022-09-24T14:11:58.345Z,3.15
2022-09-24T14:14:28.906Z,2.88
2022-09-24T14:17:14.508Z,2.55
2022-09-24T14:19:42.632Z,2.92
2022-09-24T14:22:37.612Z,2.78
2022-09-24T14:25:13.796Z,2.88
2022-09-24T14:27:45.778Z,2.80
2022-09-24T14:30:25.385Z,3.22
2022-09-24T14:33:06.506Z,3.30
2022-09-24T14:35:36.449Z,2.80
2022-09-24T14:38:15.245Z,2.53
2022-09-24T14:40:52.838Z,3.00
2022-09-24T14:43:52.359Z,3.35
2022-09-24T14:46:31.364Z,2.50
2022-09-24T14:49:06.642Z,3.00
2022-09-24T14:51:33.888Z,3.10
2022-09-24T14:54:05.953Z,2.83
2022-09-24T14:56:35.008Z,2.90
2022-09-24T14:59:13.150Z,3.17
2022-09-24T15:01:40.436Z,3.10
2022-09-24T15:04:20.142Z,3.33
2022-09-24T15:06:48.356Z,2.67
2022-09-24T15:09:27.136Z,2.50
2022-09-24T15:11:57.165Z,2.58
2022-09-24T15:14:32.978Z,3.00
2022-09-24T15:17:19.352Z,3.22
2022-09-24T15:19:47.549Z,3.58
2022-09-24T15:22:15.443Z,3.30
2022-09-24T15:24:42.638Z,2.90
2022-09-24T15:27:19.796Z,3.10
2022-09-24T15:29:47.031Z,3.00
2022-09-24T15:32:19.925Z,3.33
2022-09-24T15:34:47.810Z,2.70
2022-09-24T15:37:21.705Z,2.80
2022-09-24T15:39:50.017Z,3.33
2022-09-24T15:42:23.310Z,3.95
2022-09-24T15:44:50.897Z,5.95
2022-09-24T15:47:19.082Z,5.35
2022-09-24T15:49:46.325Z,5.13
2022-09-24T15:52:31.935Z,5.25
2022-09-24T15:55:02.304Z,5.40
2022-09-24T15:57:30.345Z,6.32
2022-09-24T15:59:57.775Z,6.03
2022-09-24T16:02:30.372Z,6.15
2022-09-24T16:05:02.828Z,6.18
2022-09-24T16:07:31.542Z,6.78
2022-09-24T16:09:58.874Z,6.90
2022-09-24T16:12:28.250Z,7.35
2022-09-24T16:14:59.219Z,6.97
2022-09-24T16:17:28.354Z,6.65
2022-09-24T16:19:55.524Z,7.40
2022-09-24T16:22:23.131Z,6.72
2022-09-24T16:24:50.728Z,7.03
2022-09-24T16:27:17.947Z,7.70
2022-09-24T16:29:45.321Z,7.38
2022-09-24T16:32:13.892Z,6.63
2022-09-24T16:34:41.591Z,8.70
2022-09-24T16:37:09.574Z,7.20
2022-09-24T16:39:36.869Z,8.40
2022-09-24T16:42:04.310Z,7.47
2022-09-24T16:44:31.850Z,7.88
2022-09-24T16:46:59.055Z,8.80
2022-09-24T16:49:26.880Z,8.63
2022-09-24T16:51:54.820Z,8.95
2022-09-24T16:54:23.071Z,8.43
2022-09-24T16:56:52.262Z,8.38
2022-09-24T16:59:19.809Z,8.75
2022-09-24T17:01:47.142Z,8.32
2022-09-24T17:04:14.399Z,9.95
2022-09-24T17:06:45.174Z,9.40
2022-09-24T17:09:31.197Z,8.18
2022-09-24T17:11:58.549Z,8.20
2022-09-24T17:14:25.811Z,8.98
2022-09-24T17:16:53.113Z,7.63
2022-09-24T17:19:20.455Z,10.10
2022-09-24T17:21:50.247Z,12.43
2022-09-24T17:24:21.587Z,10.88
2022-09-24T17:26:49.866Z,10.07
2022-09-24T17:29:21.008Z,10.68
2022-09-24T17:31:49.079Z,12.90
2022-09-24T17:34:17.167Z,13.57
2022-09-24T17:36:44.370Z,14.70
2022-09-24T17:39:13.237Z,16.67
2022-09-24T17:41:40.920Z,18.20
2022-09-24T17:44:09.457Z,18.55
2022-09-24T17:46:36.770Z,19.08
2022-09-24T17:49:04.669Z,22.98
2022-09-24T17:51:34.150Z,24.10
2022-09-24T17:54:04.131Z,26.70
2022-09-24T17:56:33.455Z,32.47
2022-09-24T17:59:00.707Z,33.45
2022-09-24T18:01:38.384Z,30.85
2022-09-24T18:04:09.470Z,38.40
2022-09-24T18:06:39.470Z,40.03
2022-09-24T18:09:08.408Z,47.72
2022-09-24T18:11:58.504Z,53.55
2022-09-24T18:14:26.213Z,68.10
2022-09-24T18:16:53.853Z,78.38
2022-09-24T18:19:24.187Z,68.65
2022-09-24T18:21:51.658Z,67.28
2022-09-24T18:24:19.098Z,71.22
2022-09-24T18:26:51.290Z,68.35
2022-09-24T18:29:20.105Z,63.10
2022-09-24T18:31:47.966Z,64.10
2022-09-24T18:34:16.201Z,62.58
2022-09-24T18:36:44.712Z,69.28
2022-09-24T18:39:15.816Z,75.28
2022-09-24T18:41:44.898Z,84.72
2022-09-24T18:44:12.448Z,83.60
2022-09-24T18:46:40.177Z,86.85
2022-09-24T18:49:07.616Z,81.68
2022-09-24T18:51:37.849Z,80.20
2022-09-24T18:54:13.561Z,84.75
2022-09-24T18:56:42.859Z,76.68
2022-09-24T18:59:14.514Z,83.45
2022-09-24T19:01:43.329Z,79.03
2022-09-24T19:04:12.860Z,65.30
2022-09-24T19:06:42.516Z,60.72
2022-09-24T19:09:11.223Z,65.13
2022-09-24T19:11:38.721Z,60.97
2022-09-24T19:14:05.998Z,58.22
2022-09-24T19:16:33.693Z,56.25
2022-09-24T19:19:02.068Z,58.45
2022-09-24T19:21:29.616Z,53.30
2022-09-24T19:23:58.646Z,54.30
2022-09-24T19:26:29.219Z,54.88
2022-09-24T19:28:57.332Z,53.85
2022-09-24T19:31:26.652Z,51.60
2022-09-24T19:33:54.414Z,51.42
2022-09-24T19:36:22.358Z,51.17
2022-09-24T19:38:51.146Z,52.45
2022-09-24T19:41:24.908Z,47.55
2022-09-24T19:43:54.466Z,49.03
2022-09-24T19:46:24.366Z,49.20
2022-09-24T19:48:53.194Z,47.53
2022-09-24T19:51:31.483Z,46.58
2022-09-24T19:54:01.361Z,49.03
2022-09-24T19:56:29.673Z,51.50
2022-09-24T19:58:58.590Z,52.60
2022-09-24T20:01:31.584Z,58.83
2022-09-24T20:04:02.416Z,55.70
2022-09-24T20:06:33.782Z,57.53
2022-09-24T20:09:01.661Z,71.95
2022-09-24T20:11:32.419Z,60.30
2022-09-24T20:14:01.345Z,48.20
2022-09-24T20:16:33.294Z,51.28
2022-09-24T20:19:02.289Z,50.00
2022-09-24T20:21:34.784Z,49.53
2022-09-24T20:24:04.107Z,53.35
2022-09-24T20:26:51.136Z,49.33
2022-09-24T20:29:20.058Z,46.73
2022-09-24T20:31:52.646Z,46.35
2022-09-24T20:34:22.440Z,46.53
2022-09-24T20:36:50.805Z,42.63
2022-09-24T20:39:18.694Z,43.97
2022-09-24T20:41:46.104Z,43.22
2022-09-24T20:44:13.914Z,45.13
2022-09-24T20:46:41.286Z,44.35
2022-09-24T20:49:14.042Z,44.53
2022-09-24T20:51:41.512Z,44.53
2022-09-24T20:54:08.986Z,44.00
2022-09-24T20:56:36.315Z,44.13
2022-09-24T20:59:04.303Z,44.92
2022-09-24T21:01:31.676Z,44.17
2022-09-24T21:03:58.964Z,45.60
2022-09-24T21:06:26.467Z,44.75
2022-09-24T21:08:53.776Z,44.97
2022-09-24T21:11:26.631Z,48.35
2022-09-24T21:13:57.196Z,46.22
2022-09-24T21:16:26.271Z,46.88
2022-09-24T21:18:56.742Z,44.95
2022-09-24T21:21:27.068Z,47.67
2022-09-24T21:23:56.059Z,46.50
2022-09-24T21:26:25.838Z,48.30
2022-09-24T21:29:23.363Z,48.22
2022-09-24T21:31:50.667Z,44.75
2022-09-24T21:34:21.050Z,45.33
2022-09-24T21:36:48.407Z,46.55
2022-09-24T21:39:17.460Z,45.03
2022-09-24T21:41:48.172Z,46.30
2022-09-24T21:44:16.894Z,45.70
2022-09-24T21:46:44.624Z,46.38
2022-09-24T21:49:12.544Z,48.13
2022-09-24T21:51:41.184Z,44.38
2022-09-24T21:54:14.125Z,46.35
2022-09-24T21:56:41.646Z,45.90
2022-09-24T21:59:27.476Z,45.30
2022-09-24T22:01:55.944Z,44.80
2022-09-24T22:04:23.168Z,45.05
2022-09-24T22:06:51.179Z,44.80
2022-09-24T22:09:19.025Z,44.08
2022-09-24T22:11:46.897Z,43.00
2022-09-24T22:14:14.551Z,43.63
2022-09-24T22:16:42.153Z,44.97
2022-09-24T22:19:09.485Z,44.47
2022-09-24T22:21:36.829Z,46.13
2022-09-24T22:24:05.440Z,45.88
2022-09-24T22:26:33.183Z,46.60
2022-09-24T22:29:01.241Z,45.97
2022-09-24T22:31:28.710Z,45.92
2022-09-24T22:34:14.509Z,46.63
2022-09-24T22:36:41.855Z,43.05
2022-09-24T22:39:09.487Z,44.55
2022-09-24T22:41:40.183Z,44.67
2022-09-24T22:44:08.038Z,41.95
2022-09-24T22:46:36.435Z,43.80
2022-09-24T22:49:05.305Z,41.03
2022-09-24T22:51:33.771Z,42.75
2022-09-24T22:54:01.433Z,43.15
2022-09-24T22:56:30.110Z,42.78
2022-09-24T22:58:59.907Z,41.35
2022-09-24T23:01:33.528Z,42.90
2022-09-24T23:04:02.072Z,41.58
2022-09-24T23:06:30.373Z,44.97
2022-09-24T23:08:57.717Z,50.33
2022-09-24T23:11:30.751Z,49.00
2022-09-24T23:14:00.458Z,53.30
2022-09-24T23:16:32.868Z,72.88
2022-09-24T23:19:02.986Z,73.50
2022-09-24T23:21:31.642Z,68.65
2022-09-24T23:24:12.466Z,72.13
2022-09-24T23:26:39.847Z,70.13
2022-09-24T23:29:07.164Z,67.88
2022-09-24T23:31:37.032Z,65.93
2022-09-24T23:34:07.601Z,64.65
2022-09-24T23:36:35.729Z,62.17
2022-09-24T23:39:04.120Z,59.97
2022-09-24T23:41:31.857Z,58.58
2022-09-24T23:43:59.940Z,57.95
2022-09-24T23:46:27.593Z,59.30
2022-09-24T23:48:55.753Z,63.38
2022-09-24T23:51:23.045Z,63.67
2022-09-24T23:53:50.283Z,64.47
2022-09-24T23:56:18.177Z,62.55
2022-09-24T23:58:46.141Z,61.58
